Time;durP1;ratioP1;P1;durP2;ratioP2;P2;SDS_P1;SDS_P2;PMS_P1;PMS_P2;Temp;Humidity;BMP_temperature;BMP_pressure;BME280_temperature;BME280_humidity;BME280_pressure;Samples;Min_cycle;Max_cycle;Signal;HPM_P1;HPM_P2
2023/03/23 00:01:37;;;;;;;8.23;6.10;;;;;;;;;;5039646;28;20029;-78
2023/03/23 00:04:04;;;;;;;13.43;5.68;;;;;;;;;;5017671;28;20511;-78
2023/03/23 00:06:32;;;;;;;6.75;5.60;;;;;;;;;;5040042;28;20047;-79
2023/03/23 00:09:01;;;;;;;7.15;5.07;;;;;;;;;;5039156;28;20053;-79
2023/03/23 00:11:29;;;;;;;8.13;5.43;;;;;;;;;;5039985;28;20115;-78
2023/03/23 00:13:57;;;;;;;6.35;5.10;;;;;;;;;;5023634;28;20032;-79
2023/03/23 00:16:31;;;;;;;6.90;5.50;;;;;;;;;;5036111;28;20067;-80
2023/03/23 00:19:02;;;;;;;6.88;4.95;;;;;;;;;;5038439;28;20087;-77
2023/03/23 00:21:34;;;;;;;6.22;5.30;;;;;;;;;;5031866;28;20396;-80
2023/03/23 00:24:06;;;;;;;5.97;5.18;;;;;;;;;;5037927;28;20033;-79
2023/03/23 00:26:33;;;;;;;5.47;4.97;;;;;;;;;;5038502;28;20029;-76
2023/03/23 00:29:07;;;;;;;5.80;5.15;;;;;;;;;;5018326;28;20511;-77
2023/03/23 00:31:35;;;;;;;5.75;4.80;;;;;;;;;;5033246;28;20513;-76
2023/03/23 00:34:03;;;;;;;6.03;4.55;;;;;;;;;;5019496;28;20030;-76
2023/03/23 00:36:34;;;;;;;7.82;4.57;;;;;;;;;;5035056;28;20033;-79
2023/03/23 00:39:03;;;;;;;4.88;4.38;;;;;;;;;;5018465;28;20458;-79
2023/03/23 00:41:30;;;;;;;7.43;5.00;;;;;;;;;;5020395;28;20044;-77
2023/03/23 00:44:00;;;;;;;5.68;4.55;;;;;;;;;;5022449;28;20123;-76
2023/03/23 00:46:27;;;;;;;5.72;5.15;;;;;;;;;;5020768;28;20088;-76
2023/03/23 00:48:54;;;;;;;5.18;4.68;;;;;;;;;;5037744;28;20558;-78
2023/03/23 00:51:21;;;;;;;5.05;4.43;;;;;;;;;;5025863;28;20095;-77
2023/03/23 00:53:47;;;;;;;8.48;4.82;;;;;;;;;;5037414;28;20040;-76
2023/03/23 00:56:14;;;;;;;5.40;4.90;;;;;;;;;;5020670;28;20033;-76
2023/03/23 00:58:41;;;;;;;5.50;4.88;;;;;;;;;;5039548;28;20055;-78
2023/03/23 01:01:08;;;;;;;5.85;5.07;;;;;;;;;;5016461;28;20117;-76
2023/03/23 01:03:35;;;;;;;7.63;4.40;;;;;;;;;;5022174;28;20146;-76
2023/03/23 01:06:12;;;;;;;5.50;5.00;;;;;;;;;;5025208;28;20138;-76
2023/03/23 01:08:45;;;;;;;5.30;4.80;;;;;;;;;;5030250;28;20475;-76
2023/03/23 01:11:16;;;;;;;6.03;5.10;;;;;;;;;;5040461;28;20041;-79
2023/03/23 01:13:45;;;;;;;5.93;4.38;;;;;;;;;;5036398;28;20118;-76
2023/03/23 01:16:12;;;;;;;5.47;4.95;;;;;;;;;;5025048;28;20190;-79
2023/03/23 01:18:39;;;;;;;5.30;4.78;;;;;;;;;;5030646;28;20053;-76
2023/03/23 01:21:10;;;;;;;6.22;4.80;;;;;;;;;;5039506;28;20039;-76
2023/03/23 01:23:37;;;;;;;6.18;5.05;;;;;;;;;;5018485;28;20124;-78
2023/03/23 01:26:08;;;;;;;5.38;4.65;;;;;;;;;;5022272;28;20044;-76
2023/03/23 01:28:35;;;;;;;6.43;4.25;;;;;;;;;;5031429;28;20095;-76
2023/03/23 01:31:06;;;;;;;5.20;4.60;;;;;;;;;;5043581;28;20037;-76
2023/03/23 01:33:33;;;;;;;6.90;4.22;;;;;;;;;;5021179;28;20044;-76
2023/03/23 01:44:03;;;;;;;5.03;4.30;;;;;;;;;;4979133;28;20044;-77
2023/03/23 01:46:54;;;;;;;4.65;4.13;;;;;;;;;;4966582;28;20467;-76
2023/03/23 01:49:38;;;;;;;5.60;5.05;;;;;;;;;;5028187;28;20037;-78
2023/03/23 01:52:07;;;;;;;7.10;5.13;;;;;;;;;;5035522;28;20044;-79
2023/03/23 01:54:36;;;;;;;7.57;5.13;;;;;;;;;;5021302;28;20517;-76
2023/03/23 01:57:06;;;;;;;8.02;5.30;;;;;;;;;;5018417;28;20475;-76
2023/03/23 01:59:35;;;;;;;5.63;4.97;;;;;;;;;;5013505;28;20037;-76
2023/03/23 02:02:27;;;;;;;7.60;4.97;;;;;;;;;;5017602;28;20080;-76
2023/03/23 02:05:00;;;;;;;9.38;4.88;;;;;;;;;;5020554;28;20037;-76
2023/03/23 02:07:28;;;;;;;5.88;5.30;;;;;;;;;;5014450;28;20041;-79
2023/03/23 02:09:57;;;;;;;6.18;5.35;;;;;;;;;;5019200;28;20071;-78
2023/03/23 02:12:23;;;;;;;5.88;5.25;;;;;;;;;;5020212;28;20099;-76
2023/03/23 02:14:52;;;;;;;6.13;5.53;;;;;;;;;;5021691;28;20399;-76
2023/03/23 02:17:24;;;;;;;10.23;5.43;;;;;;;;;;5020076;28;20068;-80
2023/03/23 02:19:51;;;;;;;6.78;5.63;;;;;;;;;;5012958;28;20033;-79
2023/03/23 02:22:23;;;;;;;6.70;5.25;;;;;;;;;;5038378;28;20547;-78
2023/03/23 02:25:08;;;;;;;6.70;5.38;;;;;;;;;;5018934;28;20087;-81
2023/03/23 02:27:41;;;;;;;6.95;5.53;;;;;;;;;;5018597;28;20398;-77
2023/03/23 02:30:20;;;;;;;7.03;5.70;;;;;;;;;;5023438;28;20044;-80
2023/03/23 02:33:05;;;;;;;7.95;5.28;;;;;;;;;;5019883;28;20128;-77
2023/03/23 02:36:01;;;;;;;7.63;5.90;;;;;;;;;;5036103;28;20044;-79
2023/03/23 02:38:36;;;;;;;7.68;5.50;;;;;;;;;;4983381;28;20078;-77
2023/03/23 02:41:03;;;;;;;6.60;4.97;;;;;;;;;;5019007;28;20033;-77
2023/03/23 02:43:30;;;;;;;10.65;5.40;;;;;;;;;;4995371;28;20090;-77
2023/03/23 02:45:57;;;;;;;7.68;5.40;;;;;;;;;;5014209;28;20624;-78
2023/03/23 02:48:25;;;;;;;6.15;5.55;;;;;;;;;;5018955;28;20534;-77
2023/03/23 02:50:53;;;;;;;6.03;5.32;;;;;;;;;;5017520;28;20040;-76
2023/03/23 02:53:22;;;;;;;7.55;5.55;;;;;;;;;;5039612;28;20072;-76
2023/03/23 02:55:53;;;;;;;7.70;5.57;;;;;;;;;;5018950;28;20040;-78
2023/03/23 02:58:21;;;;;;;7.32;5.70;;;;;;;;;;5049123;28;20044;-78
2023/03/23 03:00:52;;;;;;;7.05;5.82;;;;;;;;;;5021736;28;20123;-77
2023/03/23 03:03:22;;;;;;;9.10;5.68;;;;;;;;;;5026844;28;20103;-81
2023/03/23 03:05:59;;;;;;;8.20;5.63;;;;;;;;;;5021443;28;20550;-77
2023/03/23 03:08:29;;;;;;;6.03;5.43;;;;;;;;;;5036005;28;20049;-77
2023/03/23 03:10:59;;;;;;;7.53;5.70;;;;;;;;;;5035971;28;20037;-77
2023/03/23 03:13:45;;;;;;;6.95;5.60;;;;;;;;;;5021729;28;20033;-80
2023/03/23 03:16:12;;;;;;;6.43;5.68;;;;;;;;;;5020541;28;20536;-79
2023/03/23 03:18:48;;;;;;;11.45;5.53;;;;;;;;;;5046630;28;20051;-76
2023/03/23 03:21:15;;;;;;;7.57;5.40;;;;;;;;;;5028988;28;20048;-76
2023/03/23 03:23:45;;;;;;;6.65;5.45;;;;;;;;;;5024913;28;20051;-78
2023/03/23 03:26:16;;;;;;;8.43;5.80;;;;;;;;;;5020259;28;20531;-79
2023/03/23 03:28:50;;;;;;;5.45;4.95;;;;;;;;;;5023967;28;20048;-76
2023/03/23 03:31:21;;;;;;;5.50;4.88;;;;;;;;;;5021653;28;20494;-76
2023/03/23 03:33:47;;;;;;;7.50;5.72;;;;;;;;;;5036602;28;20394;-76
2023/03/23 03:36:21;;;;;;;8.38;5.47;;;;;;;;;;5022364;28;20840;-77
2023/03/23 03:38:49;;;;;;;8.70;5.07;;;;;;;;;;5040356;28;20037;-76
2023/03/23 03:41:16;;;;;;;6.45;5.47;;;;;;;;;;5027393;28;20048;-76
2023/03/23 03:43:43;;;;;;;7.38;5.38;;;;;;;;;;5047323;28;20060;-78
2023/03/23 03:46:10;;;;;;;6.72;5.40;;;;;;;;;;5020445;28;20044;-77
2023/03/23 03:48:38;;;;;;;8.80;5.95;;;;;;;;;;5009185;28;20106;-77
2023/03/23 03:51:05;;;;;;;8.00;5.78;;;;;;;;;;5039326;28;20033;-80
2023/03/23 03:53:35;;;;;;;7.38;5.72;;;;;;;;;;5023684;28;20047;-78
2023/03/23 03:56:02;;;;;;;9.70;5.45;;;;;;;;;;5018424;28;20033;-76
2023/03/23 03:58:36;;;;;;;8.35;6.05;;;;;;;;;;5020966;28;20090;-78
2023/03/23 04:01:13;;;;;;;8.55;5.85;;;;;;;;;;5023348;28;20057;-77
2023/03/23 04:03:40;;;;;;;7.53;5.90;;;;;;;;;;5025574;28;20125;-77
2023/03/23 04:06:15;;;;;;;5.88;5.38;;;;;;;;;;5022737;28;20564;-77
2023/03/23 04:08:42;;;;;;;8.45;5.43;;;;;;;;;;5036690;28;20418;-77
2023/03/23 04:11:10;;;;;;;7.57;5.78;;;;;;;;;;5020220;28;20033;-79
2023/03/23 04:13:36;;;;;;;9.25;5.82;;;;;;;;;;5021518;28;20111;-79
2023/03/23 04:16:23;;;;;;;7.25;5.90;;;;;;;;;;5040054;28;20075;-77
2023/03/23 04:18:50;;;;;;;6.65;5.72;;;;;;;;;;5025712;28;20041;-77
2023/03/23 04:21:17;;;;;;;5.95;4.93;;;;;;;;;;5020658;28;20032;-77
2023/03/23 04:23:47;;;;;;;7.45;6.07;;;;;;;;;;5017800;28;20087;-80
2023/03/23 04:26:15;;;;;;;6.47;5.75;;;;;;;;;;5021838;28;20527;-78
2023/03/23 04:28:45;;;;;;;7.07;6.38;;;;;;;;;;5018773;28;20341;-77
2023/03/23 04:31:29;;;;;;;8.05;6.07;;;;;;;;;;5033389;28;20452;-77
2023/03/23 04:34:06;;;;;;;7.18;5.78;;;;;;;;;;5022953;28;20491;-80
2023/03/23 04:36:40;;;;;;;6.68;5.57;;;;;;;;;;5020130;28;20041;-79
2023/03/23 04:39:15;;;;;;;7.13;5.78;;;;;;;;;;5018374;28;20049;-79
2023/03/23 04:41:43;;;;;;;7.82;6.72;;;;;;;;;;5020426;28;20048;-77
2023/03/23 04:44:21;;;;;;;11.65;7.85;;;;;;;;;;5016744;28;20120;-76
2023/03/23 04:47:10;;;;;;;10.18;6.72;;;;;;;;;;5039230;28;20474;-76
2023/03/23 04:49:44;;;;;;;7.85;6.55;;;;;;;;;;5021846;28;20414;-80
2023/03/23 04:52:20;;;;;;;9.57;7.13;;;;;;;;;;5015817;28;20458;-79
2023/03/23 04:54:55;;;;;;;9.63;6.85;;;;;;;;;;5019167;28;20047;-76
2023/03/23 04:57:32;;;;;;;11.90;8.32;;;;;;;;;;5060856;22;20029;-84
2023/03/23 05:00:33;;;;;;;8.95;7.20;;;;;;;;;;4982110;28;20787;-83
2023/03/23 05:03:08;;;;;;;10.48;6.90;;;;;;;;;;5005100;28;20057;-84
2023/03/23 05:05:42;;;;;;;13.77;7.60;;;;;;;;;;4986841;28;20431;-86
2023/03/23 05:08:25;;;;;;;9.63;7.13;;;;;;;;;;5006210;28;20413;-84
2023/03/23 05:10:56;;;;;;;13.43;8.15;;;;;;;;;;4989602;28;20034;-84
2023/03/23 05:13:39;;;;;;;12.00;8.00;;;;;;;;;;4988981;28;20046;-84
2023/03/23 05:16:10;;;;;;;8.90;7.20;;;;;;;;;;4998826;28;20115;-84
2023/03/23 05:18:46;;;;;;;15.02;8.63;;;;;;;;;;5000964;28;20125;-84
2023/03/23 05:21:35;;;;;;;9.57;7.38;;;;;;;;;;5004808;28;20555;-84
2023/03/23 05:24:01;;;;;;;9.48;7.07;;;;;;;;;;4982245;28;20498;-84
2023/03/23 05:26:37;;;;;;;9.98;7.30;;;;;;;;;;4987427;28;20092;-84
2023/03/23 05:29:15;;;;;;;12.52;8.57;;;;;;;;;;4988709;28;20077;-85
2023/03/23 05:32:16;;;;;;;10.90;8.55;;;;;;;;;;5002919;28;20412;-84
2023/03/23 05:34:52;;;;;;;12.65;8.55;;;;;;;;;;4994770;28;20470;-85
2023/03/23 05:37:28;;;;;;;13.68;9.10;;;;;;;;;;4995294;28;20491;-86
2023/03/23 05:40:06;;;;;;;10.23;8.32;;;;;;;;;;4995921;28;20045;-84
2023/03/23 05:42:45;;;;;;;10.60;7.25;;;;;;;;;;4989473;28;20099;-85
2023/03/23 05:45:19;;;;;;;12.13;7.88;;;;;;;;;;5009448;28;20116;-84
2023/03/23 05:47:53;;;;;;;10.45;7.10;;;;;;;;;;5003889;28;20098;-84
2023/03/23 05:50:34;;;;;;;14.15;8.55;;;;;;;;;;4980532;28;20045;-84
2023/03/23 05:53:18;;;;;;;11.80;7.78;;;;;;;;;;4995521;28;20096;-84
2023/03/23 05:56:00;;;;;;;12.18;8.57;;;;;;;;;;5001784;28;20100;-84
2023/03/23 05:58:51;;;;;;;15.25;9.70;;;;;;;;;;5009909;28;20097;-88
2023/03/23 06:01:24;;;;;;;13.60;10.38;;;;;;;;;;5016914;28;20656;-87
2023/03/23 06:04:00;;;;;;;11.05;8.48;;;;;;;;;;5013398;28;20034;-87
2023/03/23 06:06:49;;;;;;;11.98;9.63;;;;;;;;;;4995586;28;20505;-85
2023/03/23 06:09:21;;;;;;;15.20;9.70;;;;;;;;;;4994486;28;20400;-85
2023/03/23 06:12:20;;;;;;;12.95;9.02;;;;;;;;;;4966029;28;20045;-85
2023/03/23 06:15:12;;;;;;;10.18;7.57;;;;;;;;;;4989858;28;20037;-84
2023/03/23 06:18:03;;;;;;;11.70;8.18;;;;;;;;;;5006437;28;20042;-84
2023/03/23 06:20:55;;;;;;;9.55;8.18;;;;;;;;;;5001124;28;20085;-86
2023/03/23 06:23:50;;;;;;;14.43;8.98;;;;;;;;;;4984610;28;20042;-83
2023/03/23 06:26:36;;;;;;;15.23;8.07;;;;;;;;;;4983697;28;20276;-85
2023/03/23 06:29:26;;;;;;;9.75;6.95;;;;;;;;;;4988929;28;20034;-84
2023/03/23 06:31:57;;;;;;;12.43;6.93;;;;;;;;;;4983976;28;20057;-84
2023/03/23 06:34:26;;;;;;;11.55;6.93;;;;;;;;;;4985738;28;20038;-85
2023/03/23 06:37:23;;;;;;;7.97;6.25;;;;;;;;;;4996291;28;20072;-84
2023/03/23 06:40:18;;;;;;;10.55;6.30;;;;;;;;;;4986237;28;20623;-83
2023/03/23 06:42:55;;;;;;;6.22;5.63;;;;;;;;;;4999280;28;20056;-84
2023/03/23 06:45:25;;;;;;;9.63;5.38;;;;;;;;;;4990474;28;20054;-83
2023/03/23 06:48:02;;;;;;;7.30;6.20;;;;;;;;;;4989843;28;20134;-85
2023/03/23 06:50:32;;;;;;;7.70;6.15;;;;;;;;;;4990634;28;20118;-84
2023/03/23 06:53:06;;;;;;;9.48;6.38;;;;;;;;;;4959905;28;20041;-84
2023/03/23 06:55:32;;;;;;;10.50;6.03;;;;;;;;;;4974850;28;20085;-85
2023/03/23 06:58:02;;;;;;;7.07;6.38;;;;;;;;;;4990113;28;20050;-85
2023/03/23 07:00:29;;;;;;;6.72;6.03;;;;;;;;;;4972632;28;20042;-85
2023/03/23 07:02:57;;;;;;;8.50;6.13;;;;;;;;;;4988900;28;20097;-82
2023/03/23 07:05:24;;;;;;;6.90;5.30;;;;;;;;;;5003270;28;20101;-84
2023/03/23 07:07:52;;;;;;;6.95;5.63;;;;;;;;;;4989109;28;20042;-86
2023/03/23 07:10:28;;;;;;;8.95;5.32;;;;;;;;;;4973155;28;20034;-84
2023/03/23 07:12:56;;;;;;;6.72;5.93;;;;;;;;;;4972803;28;20038;-84
2023/03/23 07:15:23;;;;;;;7.45;6.38;;;;;;;;;;4972283;28;20034;-84
2023/03/23 07:17:54;;;;;;;7.85;5.78;;;;;;;;;;4972940;28;20411;-84
2023/03/23 07:20:31;;;;;;;7.03;6.20;;;;;;;;;;4974053;28;20034;-82
2023/03/23 07:23:01;;;;;;;4.93;4.50;;;;;;;;;;4997094;28;20099;-83
2023/03/23 07:26:04;;;;;;;5.90;5.30;;;;;;;;;;4962090;28;20041;-84
2023/03/23 07:28:48;;;;;;;7.78;5.75;;;;;;;;;;5001424;28;20046;-85
2023/03/23 07:31:37;;;;;;;6.75;5.40;;;;;;;;;;5020371;28;20109;-85
2023/03/23 07:34:03;;;;;;;10.20;7.03;;;;;;;;;;4989484;28;20037;-84
2023/03/23 07:36:41;;;;;;;8.05;6.75;;;;;;;;;;4996229;28;20434;-84
2023/03/23 07:39:08;;;;;;;10.52;7.70;;;;;;;;;;4985981;28;20499;-85
2023/03/23 07:41:37;;;;;;;9.30;6.82;;;;;;;;;;4993495;28;20433;-84
2023/03/23 07:44:14;;;;;;;9.30;6.43;;;;;;;;;;4986600;28;20065;-84
2023/03/23 07:46:43;;;;;;;9.15;6.85;;;;;;;;;;4987514;28;20042;-85
2023/03/23 07:49:18;;;;;;;10.07;7.50;;;;;;;;;;4986422;28;20084;-83
2023/03/23 07:51:55;;;;;;;12.07;7.97;;;;;;;;;;5001139;28;20030;-83
2023/03/23 07:54:22;;;;;;;7.72;6.90;;;;;;;;;;4988735;28;20030;-83
2023/03/23 07:57:06;;;;;;;8.35;7.50;;;;;;;;;;4994444;28;20041;-83
2023/03/23 07:59:37;;;;;;;11.93;7.25;;;;;;;;;;5012619;28;20041;-83
2023/03/23 08:02:03;;;;;;;10.43;7.13;;;;;;;;;;4997947;28;20042;-84
2023/03/23 08:04:50;;;;;;;6.97;6.28;;;;;;;;;;5013650;28;20060;-83
2023/03/23 08:07:35;;;;;;;8.48;5.82;;;;;;;;;;4987030;28;20046;-84
2023/03/23 08:10:10;;;;;;;7.43;5.82;;;;;;;;;;4988146;28;20038;-83
2023/03/23 08:13:03;;;;;;;15.23;5.45;;;;;;;;;;5003005;28;20038;-84
2023/03/23 08:15:49;;;;;;;5.88;5.30;;;;;;;;;;5007173;28;20083;-84
2023/03/23 08:18:19;;;;;;;7.63;6.07;;;;;;;;;;5003565;28;20042;-83
2023/03/23 08:21:05;;;;;;;6.10;5.50;;;;;;;;;;5010501;28;20047;-84
2023/03/23 08:24:06;;;;;;;8.30;5.72;;;;;;;;;;4992583;28;20540;-84
2023/03/23 08:26:51;;;;;;;8.27;5.70;;;;;;;;;;4995511;28;20041;-85
2023/03/23 08:29:33;;;;;;;;;;;;;;;;;;5007297;28;20419;-85
2023/03/23 08:32:19;;;;;;;7.40;5.20;;;;;;;;;;5010044;28;20009;-84
2023/03/23 08:35:09;;;;;;;5.10;4.60;;;;;;;;;;5007185;28;20069;-84
2023/03/23 08:37:54;;;;;;;6.88;4.95;;;;;;;;;;5005840;28;20037;-84
2023/03/23 08:40:39;;;;;;;11.98;5.47;;;;;;;;;;4997066;28;20060;-83
2023/03/23 08:43:25;;;;;;;7.05;4.70;;;;;;;;;;5013911;28;20050;-84
2023/03/23 08:46:20;;;;;;;7.57;4.97;;;;;;;;;;5000282;28;20050;-84
2023/03/23 08:49:05;;;;;;;6.55;4.35;;;;;;;;;;4995659;28;20115;-82
2023/03/23 08:52:10;;;;;;;5.03;4.40;;;;;;;;;;5006596;28;20042;-85
2023/03/23 08:54:53;;;;;;;6.00;4.47;;;;;;;;;;5016382;28;20037;-84
2023/03/23 08:57:46;;;;;;;;;;;;;;;;;;5002256;28;20036;-83
2023/03/23 09:00:38;;;;;;;5.90;4.53;;;;;;;;;;5000487;28;19924;-84
2023/03/23 09:03:10;;;;;;;11.27;4.65;;;;;;;;;;5014404;28;20042;-85
2023/03/23 09:06:02;;;;;;;4.50;4.15;;;;;;;;;;4980044;28;20030;-83
2023/03/23 09:08:46;;;;;;;7.75;4.55;;;;;;;;;;5010703;28;20160;-85
2023/03/23 09:11:13;;;;;;;5.13;3.83;;;;;;;;;;4975560;28;20041;-84
2023/03/23 09:13:40;;;;;;;7.00;4.20;;;;;;;;;;5015507;28;20089;-84
2023/03/23 09:16:08;;;;;;;5.97;4.07;;;;;;;;;;5007968;28;20041;-84
2023/03/23 09:18:34;;;;;;;4.95;4.55;;;;;;;;;;4997517;28;20476;-85
2023/03/23 09:21:01;;;;;;;5.57;4.40;;;;;;;;;;5006475;28;20056;-84
2023/03/23 09:23:28;;;;;;;4.70;4.30;;;;;;;;;;5006088;28;20034;-84
2023/03/23 09:25:54;;;;;;;9.73;4.43;;;;;;;;;;5009543;28;20037;-85
2023/03/23 09:28:21;;;;;;;5.60;4.18;;;;;;;;;;5001168;28;20042;-84
2023/03/23 09:30:48;;;;;;;5.07;4.55;;;;;;;;;;5005217;28;20546;-84
2023/03/23 09:33:15;;;;;;;6.22;4.70;;;;;;;;;;5004841;28;20512;-84
2023/03/23 09:35:42;;;;;;;7.57;4.60;;;;;;;;;;5004265;28;20030;-83
2023/03/23 09:38:12;;;;;;;8.40;4.88;;;;;;;;;;5005120;28;20139;-84
2023/03/23 09:40:48;;;;;;;8.60;4.68;;;;;;;;;;5005278;28;20053;-85
2023/03/23 09:43:33;;;;;;;6.00;4.68;;;;;;;;;;5008343;28;20503;-83
2023/03/23 09:46:20;;;;;;;4.82;4.43;;;;;;;;;;4992886;28;20049;-84
2023/03/23 09:48:49;;;;;;;5.63;4.72;;;;;;;;;;5008523;28;20483;-84
2023/03/23 09:51:25;;;;;;;5.15;4.63;;;;;;;;;;5008099;28;20046;-84
2023/03/23 09:53:55;;;;;;;6.35;4.28;;;;;;;;;;5002245;28;20583;-84
2023/03/23 09:56:22;;;;;;;5.20;4.55;;;;;;;;;;5008123;28;20034;-84
2023/03/23 09:58:54;;;;;;;4.78;4.38;;;;;;;;;;4995099;28;20065;-84
2023/03/23 10:01:20;;;;;;;6.43;4.95;;;;;;;;;;4989053;28;20038;-84
2023/03/23 10:03:49;;;;;;;5.30;4.88;;;;;;;;;;5005764;28;20041;-84
2023/03/23 10:06:17;;;;;;;5.88;5.35;;;;;;;;;;5007018;28;20052;-84
2023/03/23 10:08:45;;;;;;;8.35;5.18;;;;;;;;;;5008811;28;20056;-83
2023/03/23 10:11:21;;;;;;;5.13;4.50;;;;;;;;;;5005396;28;20511;-84
2023/03/23 10:13:57;;;;;;;6.15;4.90;;;;;;;;;;5003938;28;20029;-84
2023/03/23 10:16:28;;;;;;;8.13;5.28;;;;;;;;;;5007769;28;20038;-83
2023/03/23 10:18:54;;;;;;;9.63;6.35;;;;;;;;;;5005475;28;20093;-83
2023/03/23 10:21:22;;;;;;;6.05;5.18;;;;;;;;;;5022204;28;20036;-84
2023/03/23 10:24:03;;;;;;;7.18;5.50;;;;;;;;;;5019344;28;20034;-84
2023/03/23 10:26:36;;;;;;;5.65;5.15;;;;;;;;;;4992740;28;20042;-84
2023/03/23 10:29:15;;;;;;;5.40;4.90;;;;;;;;;;5012479;28;20471;-85
2023/03/23 10:31:46;;;;;;;6.25;5.65;;;;;;;;;;5011227;28;20087;-86
2023/03/23 10:34:16;;;;;;;9.93;5.10;;;;;;;;;;5007694;28;20121;-84
2023/03/23 10:36:52;;;;;;;6.13;5.53;;;;;;;;;;5006594;28;20045;-84
2023/03/23 10:39:22;;;;;;;6.10;4.95;;;;;;;;;;5005327;28;20041;-85
2023/03/23 10:41:52;;;;;;;5.80;5.20;;;;;;;;;;5002032;28;20095;-85
2023/03/23 10:44:24;;;;;;;5.38;4.88;;;;;;;;;;5003396;28;20041;-85
2023/03/23 10:47:02;;;;;;;5.50;5.00;;;;;;;;;;5003780;28;20087;-83
2023/03/23 10:49:49;;;;;;;5.72;4.82;;;;;;;;;;5005747;28;20073;-84
2023/03/23 10:52:18;;;;;;;7.35;4.90;;;;;;;;;;5002101;28;20054;-84
2023/03/23 10:54:51;;;;;;;5.32;4.82;;;;;;;;;;5005697;28;20121;-86
2023/03/23 11:03:48;;;;;;;7.60;5.00;;;;;;;;;;5044095;28;20048;-77
2023/03/23 11:06:20;;;;;;;6.32;4.88;;;;;;;;;;5039633;28;20041;-77
2023/03/23 11:08:49;;;;;;;6.15;5.00;;;;;;;;;;5036089;28;20723;-77
2023/03/23 11:11:17;;;;;;;4.85;4.45;;;;;;;;;;5032964;28;20029;-80
2023/03/23 11:13:45;;;;;;;8.65;4.95;;;;;;;;;;5016104;28;20487;-80
2023/03/23 11:16:22;;;;;;;7.80;4.53;;;;;;;;;;5012420;28;20037;-81
2023/03/23 11:18:49;;;;;;;5.20;4.70;;;;;;;;;;5032305;28;20032;-79
2023/03/23 11:21:16;;;;;;;5.32;4.82;;;;;;;;;;5032022;28;20045;-75
2023/03/23 11:23:44;;;;;;;4.95;3.83;;;;;;;;;;5027911;28;20045;-78
2023/03/23 11:26:18;;;;;;;4.47;4.07;;;;;;;;;;5037418;28;20076;-77
2023/03/23 11:28:44;;;;;;;4.15;3.33;;;;;;;;;;5040287;28;20126;-80
2023/03/23 11:31:11;;;;;;;3.85;3.20;;;;;;;;;;5040560;28;20041;-77
2023/03/23 11:33:40;;;;;;;5.55;2.83;;;;;;;;;;5041419;28;20422;-77
2023/03/23 11:36:08;;;;;;;4.53;2.88;;;;;;;;;;5040583;28;20918;-78
2023/03/23 11:38:35;;;;;;;9.13;3.53;;;;;;;;;;5038902;28;20240;-77
2023/03/23 11:41:01;;;;;;;4.13;3.08;;;;;;;;;;5042797;28;20508;-79
2023/03/23 11:43:27;;;;;;;4.65;3.03;;;;;;;;;;5043546;28;20041;-79
2023/03/23 11:46:11;;;;;;;2.78;2.50;;;;;;;;;;5043566;28;20047;-79
2023/03/23 11:48:37;;;;;;;5.90;3.78;;;;;;;;;;5041199;28;20037;-81
2023/03/23 11:51:07;;;;;;;7.30;3.05;;;;;;;;;;5038990;28;20052;-78
2023/03/23 11:53:50;;;;;;;4.47;3.00;;;;;;;;;;5043748;28;20037;-78
2023/03/23 11:56:17;;;;;;;3.40;3.10;;;;;;;;;;5044204;28;20041;-79
2023/03/23 11:58:44;;;;;;;3.83;3.08;;;;;;;;;;5045966;28;20060;-79
2023/03/23 12:01:14;;;;;;;6.90;3.38;;;;;;;;;;5029736;28;20041;-77
2023/03/23 12:03:47;;;;;;;3.23;2.93;;;;;;;;;;5046808;28;20131;-78
2023/03/23 12:06:21;;;;;;;3.63;3.28;;;;;;;;;;5038844;28;20037;-80
2023/03/23 12:09:26;;;;;;;7.53;2.50;;;;;;;;;;5044963;28;20037;-78
2023/03/23 12:12:05;;;;;;;4.00;1.88;;;;;;;;;;4990292;28;20386;-77
2023/03/23 12:14:34;;;;;;;2.72;1.52;;;;;;;;;;4974260;28;20555;-79
2023/03/23 12:17:19;;;;;;;4.78;1.95;;;;;;;;;;5022098;28;20383;-79
2023/03/23 12:20:10;;;;;;;2.13;1.70;;;;;;;;;;5046816;28;20048;-79
2023/03/23 12:22:45;;;;;;;4.93;1.85;;;;;;;;;;5046992;28;20082;-77
2023/03/23 12:25:31;;;;;;;1.80;1.67;;;;;;;;;;5044218;28;20418;-79
2023/03/23 12:28:06;;;;;;;1.98;1.52;;;;;;;;;;5044260;28;20040;-76
2023/03/23 12:30:42;;;;;;;3.55;1.52;;;;;;;;;;5046476;28;20129;-76
2023/03/23 12:33:26;;;;;;;5.05;2.00;;;;;;;;;;5044763;28;20055;-76
2023/03/23 12:35:58;;;;;;;1.80;1.70;;;;;;;;;;5044785;28;20033;-82
2023/03/23 12:38:25;;;;;;;2.53;1.95;;;;;;;;;;5043933;28;22955;-78
2023/03/23 12:40:51;;;;;;;2.20;1.88;;;;;;;;;;5046059;28;20107;-78
2023/03/23 12:43:35;;;;;;;4.75;3.92;;;;;;;;;;5045741;28;20049;-76
2023/03/23 12:46:05;;;;;;;3.38;1.92;;;;;;;;;;5031733;28;20044;-77
2023/03/23 12:48:38;;;;;;;9.38;2.17;;;;;;;;;;5031052;28;20045;-77
2023/03/23 12:51:28;;;;;;;3.45;1.90;;;;;;;;;;5044239;28;20086;-80
2023/03/23 12:54:16;;;;;;;4.80;2.00;;;;;;;;;;5043760;28;20040;-77
2023/03/23 12:56:46;;;;;;;3.30;1.75;;;;;;;;;;5044054;28;20036;-78
2023/03/23 12:59:18;;;;;;;7.68;1.73;;;;;;;;;;5055753;28;20502;-78
2023/03/23 13:01:46;;;;;;;1.95;1.85;;;;;;;;;;5039696;28;20039;-78
2023/03/23 13:04:34;;;;;;;5.05;1.80;;;;;;;;;;5045044;28;20414;-76
2023/03/23 13:07:03;;;;;;;1.92;1.60;;;;;;;;;;5045671;28;20037;-78
2023/03/23 13:09:35;;;;;;;2.03;1.80;;;;;;;;;;5045161;28;20560;-76
2023/03/23 13:12:03;;;;;;;52.83;31.48;;;;;;;;;;5045273;28;20502;-79
2023/03/23 13:14:35;;;;;;;1.70;1.60;;;;;;;;;;5045035;28;20111;-76
2023/03/23 13:17:11;;;;;;;15.40;9.95;;;;;;;;;;5032179;28;20453;-77
2023/03/23 13:19:37;;;;;;;1.90;1.77;;;;;;;;;;5045774;28;20045;-78
2023/03/23 13:22:10;;;;;;;3.63;2.60;;;;;;;;;;5040200;28;20037;-78
2023/03/23 13:24:39;;;;;;;2.28;2.08;;;;;;;;;;5045174;28;20103;-76
2023/03/23 13:27:06;;;;;;;2.00;1.90;;;;;;;;;;5044839;28;20045;-76
2023/03/23 13:29:33;;;;;;;3.72;2.15;;;;;;;;;;5044746;28;20029;-76
2023/03/23 13:32:08;;;;;;;2.63;2.38;;;;;;;;;;5046037;28;20045;-78
2023/03/23 13:34:36;;;;;;;1.90;1.80;;;;;;;;;;5044826;28;20033;-78
2023/03/23 13:37:05;;;;;;;4.50;2.60;;;;;;;;;;5045994;28;20033;-76
2023/03/23 13:39:36;;;;;;;4.10;2.83;;;;;;;;;;5044997;28;20040;-77
2023/03/23 13:42:09;;;;;;;2.03;1.88;;;;;;;;;;5030084;28;20403;-77
2023/03/23 13:44:53;;;;;;;3.75;3.08;;;;;;;;;;5046372;28;20514;-76
2023/03/23 13:47:22;;;;;;;3.72;2.38;;;;;;;;;;5047053;28;20506;-77
2023/03/23 13:49:49;;;;;;;2.45;2.25;;;;;;;;;;5046993;28;20436;-77
2023/03/23 13:52:17;;;;;;;17.20;15.85;;;;;;;;;;5045272;28;20128;-78
2023/03/23 13:54:45;;;;;;;2.50;2.30;;;;;;;;;;5046060;28;20366;-78
2023/03/23 13:57:37;;;;;;;3.25;2.55;;;;;;;;;;5046115;28;20520;-78
2023/03/23 14:00:29;;;;;;;2.22;2.10;;;;;;;;;;5040725;28;20072;-78
2023/03/23 14:03:19;;;;;;;5.18;2.00;;;;;;;;;;5045605;28;20049;-78
2023/03/23 14:05:49;;;;;;;2.95;2.63;;;;;;;;;;5029794;28;20048;-78
2023/03/23 14:08:15;;;;;;;3.30;2.00;;;;;;;;;;5048145;28;20059;-78
2023/03/23 14:10:51;;;;;;;2.83;2.15;;;;;;;;;;5031791;28;20041;-78
2023/03/23 14:13:22;;;;;;;2.55;2.22;;;;;;;;;;5049885;28;20076;-78
2023/03/23 14:16:00;;;;;;;4.47;2.20;;;;;;;;;;5059990;28;20047;-78
2023/03/23 14:18:31;;;;;;;2.90;2.40;;;;;;;;;;5060020;28;20033;-78
2023/03/23 14:20:58;;;;;;;10.30;2.58;;;;;;;;;;5057116;28;20487;-78
2023/03/23 14:23:25;;;;;;;5.10;2.33;;;;;;;;;;5040610;28;20045;-78
2023/03/23 14:26:05;;;;;;;8.80;2.60;;;;;;;;;;5042468;28;20463;-79
2023/03/23 14:28:32;;;;;;;2.55;2.35;;;;;;;;;;5034883;28;20086;-79
2023/03/23 14:30:59;;;;;;;2.45;2.00;;;;;;;;;;5025035;28;20045;-79
2023/03/23 14:33:27;;;;;;;3.78;1.90;;;;;;;;;;5025819;28;20075;-78
2023/03/23 14:35:54;;;;;;;3.92;1.92;;;;;;;;;;5031063;28;20024;-78
2023/03/23 14:38:31;;;;;;;6.07;2.17;;;;;;;;;;5039910;28;20123;-78
2023/03/23 14:41:01;;;;;;;2.80;2.47;;;;;;;;;;5045983;28;20083;-78
2023/03/23 14:43:27;;;;;;;2.40;2.15;;;;;;;;;;5041515;28;20121;-78
2023/03/23 14:45:56;;;;;;;3.08;2.10;;;;;;;;;;5038925;28;20057;-78
2023/03/23 14:48:22;;;;;;;2.47;2.28;;;;;;;;;;5017520;28;20491;-78
2023/03/23 14:50:50;;;;;;;3.28;2.97;;;;;;;;;;5041025;28;20040;-78
2023/03/23 14:53:16;;;;;;;3.30;3.00;;;;;;;;;;5024382;28;20040;-78
2023/03/23 14:55:44;;;;;;;2.70;2.45;;;;;;;;;;5044653;28;20123;-78
2023/03/23 14:58:13;;;;;;;2.33;2.00;;;;;;;;;;5044394;28;20899;-78
2023/03/23 15:00:42;;;;;;;2.88;2.17;;;;;;;;;;5029238;28;20151;-78
2023/03/23 15:03:12;;;;;;;3.72;2.83;;;;;;;;;;5036829;28;20666;-78
2023/03/23 15:05:45;;;;;;;4.85;2.42;;;;;;;;;;5038953;28;20506;-78
2023/03/23 15:08:14;;;;;;;2.70;2.50;;;;;;;;;;5037728;28;20049;-78
2023/03/23 15:10:41;;;;;;;3.67;2.40;;;;;;;;;;5039792;28;20048;-78
2023/03/23 15:13:11;;;;;;;3.70;1.80;;;;;;;;;;5040290;28;20112;-78
2023/03/23 15:15:37;;;;;;;3.30;1.60;;;;;;;;;;5039014;28;20041;-78
2023/03/23 15:18:04;;;;;;;2.35;1.35;;;;;;;;;;5040994;28;20495;-78
2023/03/23 15:20:43;;;;;;;1.52;1.42;;;;;;;;;;5040212;28;20098;-78
2023/03/23 15:23:15;;;;;;;2.58;1.30;;;;;;;;;;5036802;28;20116;-78
2023/03/23 15:25:47;;;;;;;1.35;1.10;;;;;;;;;;5040216;28;20029;-78
2023/03/23 15:28:18;;;;;;;1.67;1.20;;;;;;;;;;5022542;28;20083;-77
2023/03/23 15:30:49;;;;;;;4.57;1.45;;;;;;;;;;5040271;28;20047;-78
2023/03/23 15:33:19;;;;;;;3.22;1.30;;;;;;;;;;5042405;28;20115;-78
2023/03/23 15:35:50;;;;;;;3.75;1.45;;;;;;;;;;5030414;28;20479;-78